KSCR/SCR METAR and TAF weather

Enter ICAO airport designator
Station Type Date Time Source
KSCR METAR 2019/02/21 16:00 UTC NOAA

KSCR 211600Z AUTO 20003KT 10SM BKN003 BKN007 OVC012 07/07 A3012 RMK AO2 T00680068


Station Type Date Time Source
KSCR Decoded METAR 2019/02/21 16:00 UTC NOAA

Station name not available
Feb 21, 2019 - 11:00 AM EST / 2019.02.21 1600 UTC
Wind: from the SSW (200 degrees) at 3 MPH (3 KT):0
Visibility: 10 mile(s):0
Sky conditions: overcast
Temperature: 44.2 F (6.8 C)
Dew Point: 44.2 F (6.8 C)
Relative Humidity: 100%
Pressure (altimeter): 30.12 in. Hg (1019 hPa)
ob: KSCR 211600Z AUTO 20003KT 10SM BKN003 BKN007 OVC012 07/07 A3012 RMK AO2 T00680068
cycle: 16

Station Type Date Time Source
KSCR TAF UTC NOAA

Error!


Example: see airport list